createdAt,value
2023-03-29T00:00:49.675Z,98802.75
2023-03-29T00:03:17.073Z,98794.38
2023-03-29T00:05:44.720Z,98780.28
2023-03-29T00:08:14.479Z,98777.97
2023-03-29T00:10:42.296Z,98771.94
2023-03-29T00:13:08.858Z,98762.00
2023-03-29T00:15:35.685Z,98754.03
2023-03-29T00:18:02.198Z,98762.59
2023-03-29T00:20:28.918Z,98763.56
2023-03-29T00:22:55.716Z,98763.81
2023-03-29T00:25:22.349Z,98758.16
2023-03-29T00:27:49.047Z,98751.53
2023-03-29T00:30:16.599Z,98750.16
2023-03-29T00:32:43.173Z,98747.00
2023-03-29T00:35:10.960Z,98749.84
2023-03-29T00:37:38.026Z,98745.06
2023-03-29T00:40:10.737Z,98741.72
2023-03-29T00:42:37.841Z,98737.31
2023-03-29T00:45:12.101Z,98740.19
2023-03-29T00:47:41.646Z,98740.75
2023-03-29T00:50:16.527Z,98730.56
2023-03-29T00:52:48.578Z,98736.19
2023-03-29T00:55:19.296Z,98729.47
2023-03-29T00:57:46.836Z,98722.47
2023-03-29T01:00:21.024Z,98721.47
2023-03-29T01:02:54.232Z,98719.72
2023-03-29T01:05:31.130Z,98720.56
2023-03-29T01:08:03.513Z,98703.34
2023-03-29T01:10:41.152Z,98702.28
2023-03-29T01:13:16.189Z,98694.97
2023-03-29T01:15:45.308Z,98696.56
2023-03-29T01:18:12.670Z,98690.44
2023-03-29T01:20:44.996Z,98686.88
2023-03-29T01:23:51.106Z,98683.19
2023-03-29T01:26:30.828Z,98681.84
2023-03-29T01:29:07.501Z,98675.88
2023-03-29T01:31:38.938Z,98669.63
2023-03-29T01:34:19.816Z,98670.31
2023-03-29T01:36:54.787Z,98675.97
2023-03-29T01:39:22.012Z,98661.06
2023-03-29T01:41:59.941Z,98666.97
2023-03-29T01:44:36.733Z,98654.44
2023-03-29T01:47:29.829Z,98646.66
2023-03-29T01:50:07.536Z,98656.66
2023-03-29T01:52:46.866Z,98645.47
2023-03-29T01:55:20.449Z,98651.00
2023-03-29T01:57:48.650Z,98646.81
2023-03-29T02:00:21.614Z,98642.88
2023-03-29T02:02:49.146Z,98631.44
2023-03-29T02:05:17.050Z,98641.06
2023-03-29T02:07:46.036Z,98641.91
2023-03-29T02:10:14.392Z,98643.34
2023-03-29T02:12:41.380Z,98631.63
2023-03-29T02:15:19.103Z,98633.44
2023-03-29T02:17:47.673Z,98619.13
2023-03-29T02:20:33.555Z,98630.16
2023-03-29T02:23:24.381Z,98622.34
2023-03-29T02:25:53.791Z,98628.22
2023-03-29T02:28:22.483Z,98624.38
2023-03-29T02:31:09.231Z,98625.47
2023-03-29T02:33:39.113Z,98631.47
2023-03-29T02:36:20.855Z,98629.97
2023-03-29T02:38:47.548Z,98633.94
2023-03-29T02:41:16.516Z,98623.03
2023-03-29T02:43:46.154Z,98624.63
2023-03-29T02:46:14.882Z,98615.69
2023-03-29T02:48:42.637Z,98610.22
2023-03-29T02:51:20.282Z,98616.91
2023-03-29T02:54:05.336Z,98614.53
2023-03-29T02:56:48.062Z,98611.63
2023-03-29T02:59:17.741Z,98599.06
2023-03-29T03:01:44.870Z,98598.88
2023-03-29T03:04:12.324Z,98600.75
2023-03-29T03:06:39.804Z,98591.03
2023-03-29T03:09:06.652Z,98584.78
2023-03-29T03:11:33.958Z,98588.75
2023-03-29T03:14:00.909Z,98584.19
2023-03-29T03:16:28.088Z,98578.78
2023-03-29T03:18:55.737Z,98586.75
2023-03-29T03:21:23.005Z,98577.59
2023-03-29T03:23:49.767Z,98578.53
2023-03-29T03:26:17.943Z,98578.56
2023-03-29T03:28:45.685Z,98578.56
2023-03-29T03:31:15.497Z,98581.22
2023-03-29T03:33:41.955Z,98577.16
2023-03-29T03:36:10.197Z,98578.06
2023-03-29T03:38:38.537Z,98574.91
2023-03-29T03:41:06.942Z,98571.78
2023-03-29T03:43:33.912Z,98576.34
2023-03-29T03:46:00.420Z,98577.72
2023-03-29T03:48:27.881Z,98571.84
2023-03-29T03:50:56.925Z,98575.19
2023-03-29T03:53:25.187Z,98574.81
2023-03-29T03:55:54.277Z,98569.00
2023-03-29T03:58:20.720Z,98563.41
2023-03-29T04:00:51.219Z,98555.22
2023-03-29T04:03:18.294Z,98566.63
2023-03-29T04:05:47.109Z,98562.69
2023-03-29T04:08:14.791Z,98569.69
2023-03-29T04:10:41.698Z,98572.13
2023-03-29T04:13:08.278Z,98570.94
2023-03-29T04:15:38.725Z,98568.53
2023-03-29T04:18:07.401Z,98569.03
2023-03-29T04:20:34.592Z,98566.63
2023-03-29T04:23:01.546Z,98563.66
2023-03-29T04:25:28.538Z,98562.59
2023-03-29T04:27:54.982Z,98558.59
2023-03-29T04:30:21.792Z,98565.97
2023-03-29T04:32:48.894Z,98551.16
2023-03-29T04:35:15.484Z,98553.94
2023-03-29T04:37:42.086Z,98546.84
2023-03-29T04:40:09.965Z,98557.44
2023-03-29T04:42:37.715Z,98557.31
2023-03-29T04:45:06.901Z,98556.69
2023-03-29T04:47:36.168Z,98542.78
2023-03-29T04:50:03.443Z,98543.59
2023-03-29T04:52:33.038Z,98546.13
2023-03-29T04:55:01.499Z,98533.66
2023-03-29T04:57:28.648Z,98542.28
2023-03-29T04:59:55.738Z,98536.66
2023-03-29T05:02:22.420Z,98537.59
2023-03-29T05:04:49.135Z,98540.00
2023-03-29T05:07:17.965Z,98535.53
2023-03-29T05:09:44.673Z,98535.19
2023-03-29T05:12:11.143Z,98538.53
2023-03-29T05:14:37.712Z,98542.91
2023-03-29T05:17:05.165Z,98537.97
2023-03-29T05:19:32.010Z,98543.50
2023-03-29T05:21:59.047Z,98546.88
2023-03-29T05:24:25.773Z,98552.16
2023-03-29T05:26:52.329Z,98535.31
2023-03-29T05:29:19.191Z,98543.34
2023-03-29T05:31:47.122Z,98554.31
2023-03-29T05:34:13.773Z,98546.84
2023-03-29T05:36:40.221Z,98550.81
2023-03-29T05:39:10.823Z,98549.97
2023-03-29T05:41:37.950Z,98542.97
2023-03-29T05:44:04.471Z,98543.72
2023-03-29T05:46:30.889Z,98540.22
2023-03-29T05:48:57.521Z,98529.03
2023-03-29T05:51:24.763Z,98533.00
2023-03-29T05:53:52.067Z,98536.34
2023-03-29T05:56:19.117Z,98541.28
2023-03-29T05:58:49.413Z,98537.53
2023-03-29T06:01:17.821Z,98542.59
2023-03-29T06:03:46.213Z,98534.50
2023-03-29T06:06:16.568Z,98537.75
2023-03-29T06:08:43.738Z,98527.09
2023-03-29T06:11:12.099Z,98529.66
2023-03-29T06:13:38.957Z,98531.38
2023-03-29T06:16:06.626Z,98537.31
2023-03-29T06:18:33.642Z,98534.28
2023-03-29T06:21:02.828Z,98545.69
2023-03-29T06:23:30.668Z,98543.34
2023-03-29T06:25:58.023Z,98553.03
2023-03-29T06:28:24.707Z,98556.44
2023-03-29T06:30:51.357Z,98560.38
2023-03-29T06:33:18.693Z,98560.16
2023-03-29T06:35:47.985Z,98567.59
2023-03-29T06:38:15.183Z,98561.00
2023-03-29T06:40:43.106Z,98567.94
2023-03-29T06:43:09.794Z,98552.44
2023-03-29T06:45:38.601Z,98564.03
2023-03-29T06:48:07.830Z,98565.22
2023-03-29T06:50:35.387Z,98554.34
2023-03-29T06:53:04.082Z,98561.19
2023-03-29T06:55:31.595Z,98554.75
2023-03-29T06:58:00.277Z,98557.25
2023-03-29T07:00:28.426Z,98555.00
2023-03-29T07:02:58.007Z,98548.47
2023-03-29T07:05:27.492Z,98550.69
2023-03-29T07:07:57.381Z,98551.06
2023-03-29T07:10:28.170Z,98557.22
2023-03-29T07:12:55.192Z,98569.72
2023-03-29T07:15:22.257Z,98577.69
2023-03-29T07:17:49.408Z,98574.66
2023-03-29T07:20:16.718Z,98576.09
2023-03-29T07:22:44.652Z,98575.78
2023-03-29T07:25:12.364Z,98576.94
2023-03-29T07:27:40.759Z,98582.31
2023-03-29T07:30:12.047Z,98570.78
2023-03-29T07:32:40.061Z,98576.25
2023-03-29T07:35:08.725Z,98579.28
2023-03-29T07:37:39.370Z,98576.03
2023-03-29T07:40:18.743Z,98578.81
2023-03-29T07:42:50.643Z,98582.91
2023-03-29T07:45:17.297Z,98584.78
2023-03-29T07:47:44.614Z,98598.75
2023-03-29T07:50:11.576Z,98594.66
2023-03-29T07:52:38.365Z,98598.91
2023-03-29T07:55:07.190Z,98597.69
2023-03-29T07:57:34.319Z,98595.69
2023-03-29T08:00:02.044Z,98591.38
2023-03-29T08:02:29.026Z,98600.78
2023-03-29T08:04:56.905Z,98599.66
2023-03-29T08:07:24.409Z,98591.47
2023-03-29T08:09:51.072Z,98581.75
2023-03-29T08:12:17.567Z,98580.63
2023-03-29T08:14:44.080Z,98578.53
2023-03-29T08:17:10.840Z,98587.78
2023-03-29T08:19:37.385Z,98581.78
2023-03-29T08:22:04.609Z,98576.44
2023-03-29T08:24:31.179Z,98573.91
2023-03-29T08:26:57.714Z,98577.09
2023-03-29T08:29:24.340Z,98578.38
2023-03-29T08:31:50.834Z,98579.34
2023-03-29T08:34:17.267Z,98573.47
2023-03-29T08:36:43.648Z,98571.91
2023-03-29T08:39:10.120Z,98577.94
2023-03-29T08:41:55.237Z,98573.06
2023-03-29T08:44:31.856Z,98576.31
2023-03-29T08:47:10.587Z,98573.81
2023-03-29T08:49:39.819Z,98568.91
2023-03-29T08:52:20.493Z,98569.84
2023-03-29T08:54:51.789Z,98561.84
2023-03-29T08:57:45.770Z,98557.41
2023-03-29T09:00:33.727Z,98551.06
2023-03-29T09:03:02.488Z,98549.31
2023-03-29T09:05:40.179Z,98550.25
2023-03-29T09:08:17.033Z,98556.28
2023-03-29T09:10:48.500Z,98545.13
2023-03-29T09:13:46.990Z,98554.63
2023-03-29T09:16:28.398Z,98558.13
2023-03-29T09:19:46.208Z,98557.41
2023-03-29T09:22:37.582Z,98553.56
2023-03-29T09:25:24.905Z,98556.25
2023-03-29T09:28:04.522Z,98560.31
2023-03-29T09:30:41.601Z,98557.63
2023-03-29T09:33:12.771Z,98554.13
2023-03-29T09:35:47.607Z,98550.78
2023-03-29T09:38:17.583Z,98553.63
2023-03-29T09:40:57.215Z,98544.09
2023-03-29T09:43:31.956Z,98547.25
2023-03-29T09:46:03.161Z,98540.84
2023-03-29T09:48:34.948Z,98554.78
2023-03-29T09:51:03.542Z,98542.75
2023-03-29T09:53:30.356Z,98543.22
2023-03-29T09:55:56.885Z,98544.41
2023-03-29T09:58:25.600Z,98557.97
2023-03-29T10:00:53.147Z,98546.91
2023-03-29T10:03:22.068Z,98543.72
2023-03-29T10:05:53.058Z,98541.69
2023-03-29T10:08:23.761Z,98554.31
2023-03-29T10:10:50.508Z,98538.56
2023-03-29T10:13:27.177Z,98538.25
2023-03-29T10:16:03.992Z,98541.34
2023-03-29T10:18:32.390Z,98537.06
2023-03-29T10:21:02.725Z,98535.09
2023-03-29T10:23:32.708Z,98536.03
2023-03-29T10:25:59.565Z,98537.63
2023-03-29T10:28:27.741Z,98535.41
2023-03-29T10:30:56.300Z,98530.63
2023-03-29T10:33:24.951Z,98530.19
2023-03-29T10:35:51.668Z,98532.59
2023-03-29T10:38:22.657Z,98529.75
2023-03-29T10:40:51.780Z,98524.16
2023-03-29T10:43:26.386Z,98523.53
2023-03-29T10:46:05.185Z,98519.16
2023-03-29T10:48:34.604Z,98520.66
2023-03-29T10:51:02.721Z,98519.84
2023-03-29T10:53:40.102Z,98512.97
2023-03-29T10:56:29.702Z,98518.13
2023-03-29T10:59:14.687Z,98519.19
2023-03-29T11:02:19.077Z,98519.16
2023-03-29T11:05:06.815Z,98514.44
2023-03-29T11:07:51.332Z,98522.09
2023-03-29T11:10:49.701Z,98510.25
2023-03-29T11:13:25.050Z,98525.66
2023-03-29T11:16:21.998Z,98520.47
2023-03-29T11:18:48.387Z,98520.00
2023-03-29T11:21:14.953Z,98526.25
2023-03-29T11:24:15.575Z,98516.78
2023-03-29T11:27:09.498Z,98517.31
2023-03-29T11:29:53.333Z,98512.06
2023-03-29T11:32:39.333Z,98510.63
2023-03-29T11:35:24.622Z,98505.28
2023-03-29T11:38:29.036Z,98507.25
2023-03-29T11:41:02.202Z,98506.75
2023-03-29T11:43:50.980Z,98514.66
2023-03-29T11:46:35.423Z,98510.47
2023-03-29T11:49:04.965Z,98500.56
2023-03-29T11:52:08.576Z,98506.09
2023-03-29T11:54:55.642Z,98497.72
2023-03-29T11:57:24.528Z,98500.88
2023-03-29T12:00:14.672Z,98495.75
2023-03-29T12:02:53.147Z,98500.00
2023-03-29T12:05:30.958Z,98496.47
2023-03-29T12:08:06.288Z,98501.72
2023-03-29T12:10:35.775Z,98487.72
2023-03-29T12:13:09.454Z,98493.09
2023-03-29T12:15:45.990Z,98483.97
2023-03-29T12:18:30.267Z,98478.81
2023-03-29T12:21:00.151Z,98474.38
2023-03-29T12:23:31.772Z,98468.03
2023-03-29T12:26:33.773Z,98473.59
2023-03-29T12:29:10.283Z,98463.66
2023-03-29T12:31:49.242Z,98465.38
2023-03-29T12:34:37.697Z,98461.28
2023-03-29T12:37:24.326Z,98453.72
2023-03-29T12:39:52.174Z,98441.56
2023-03-29T12:42:21.647Z,98446.16
2023-03-29T12:44:58.750Z,98448.16
2023-03-29T12:47:31.592Z,98445.38
2023-03-29T12:50:00.709Z,98438.47
2023-03-29T12:52:32.101Z,98444.72
2023-03-29T12:55:01.541Z,98453.03
2023-03-29T12:57:42.851Z,98457.84
2023-03-29T13:00:25.286Z,98459.66
2023-03-29T13:03:03.841Z,98452.00
2023-03-29T13:05:36.803Z,98445.09
2023-03-29T13:08:43.006Z,98438.69
2023-03-29T13:11:27.428Z,98435.31
2023-03-29T13:13:54.085Z,98431.66
2023-03-29T13:16:29.919Z,98422.88
2023-03-29T13:19:06.757Z,98425.22
2023-03-29T13:22:00.369Z,98420.91
2023-03-29T13:24:44.883Z,98405.44
2023-03-29T13:27:26.212Z,98401.66
2023-03-29T13:30:11.595Z,98398.81
2023-03-29T13:32:49.491Z,98409.50
2023-03-29T13:35:29.636Z,98402.09
2023-03-29T13:38:23.011Z,98405.19
2023-03-29T13:40:52.847Z,98411.66
2023-03-29T13:43:19.268Z,98410.72
2023-03-29T13:46:03.900Z,98391.56
2023-03-29T13:48:31.780Z,98388.88
2023-03-29T13:51:02.032Z,98382.88
2023-03-29T13:53:34.875Z,98399.94
2023-03-29T13:56:01.916Z,98387.28
2023-03-29T13:58:39.304Z,98392.00
2023-03-29T14:01:23.827Z,98403.00
2023-03-29T14:03:54.257Z,98391.69
2023-03-29T14:06:29.173Z,98395.13
2023-03-29T14:08:56.190Z,98390.75
2023-03-29T14:11:25.852Z,98392.53
2023-03-29T14:14:00.867Z,98389.03
2023-03-29T14:16:30.709Z,98381.50
2023-03-29T14:19:03.710Z,98377.78
2023-03-29T14:21:30.598Z,98364.81
2023-03-29T14:24:02.292Z,98366.97
2023-03-29T14:26:34.533Z,98372.66
2023-03-29T14:29:02.779Z,98367.81
2023-03-29T14:31:35.464Z,98365.91
2023-03-29T14:34:05.954Z,98366.00
2023-03-29T14:36:33.557Z,98368.56
2023-03-29T14:39:05.370Z,98366.16
2023-03-29T14:41:34.627Z,98373.81
2023-03-29T14:44:02.891Z,98366.22
2023-03-29T14:46:30.114Z,98358.06
2023-03-29T14:48:57.616Z,98353.25
2023-03-29T14:51:30.382Z,98347.75
2023-03-29T14:54:03.013Z,98352.09
2023-03-29T14:56:32.664Z,98342.13
2023-03-29T14:59:01.572Z,98347.53
2023-03-29T15:01:28.271Z,98339.44
2023-03-29T15:04:01.885Z,98324.78
2023-03-29T15:06:29.949Z,98324.34
2023-03-29T15:09:06.222Z,98313.22
2023-03-29T15:11:33.974Z,98318.00
2023-03-29T15:14:04.640Z,98319.38
2023-03-29T15:16:31.800Z,98309.78
2023-03-29T15:19:01.566Z,98316.94
2023-03-29T15:21:35.912Z,98315.16
2023-03-29T15:24:04.455Z,98314.59
2023-03-29T15:26:36.711Z,98301.97
2023-03-29T15:29:12.466Z,98304.66
2023-03-29T15:31:41.719Z,98299.84
2023-03-29T15:34:11.587Z,98307.47
2023-03-29T15:36:43.191Z,98310.38
2023-03-29T15:39:13.450Z,98309.03
2023-03-29T15:41:41.030Z,98313.69
2023-03-29T15:44:07.572Z,98304.13
2023-03-29T15:46:33.970Z,98301.81
2023-03-29T15:49:00.557Z,98305.97
2023-03-29T15:51:27.050Z,98298.88
2023-03-29T15:53:53.575Z,98296.09
2023-03-29T15:56:22.800Z,98286.09
2023-03-29T15:58:49.524Z,98284.06
2023-03-29T16:01:37.909Z,98286.34
2023-03-29T16:04:14.007Z,98282.09
2023-03-29T16:06:41.373Z,98278.66
2023-03-29T16:09:08.710Z,98286.09
2023-03-29T16:11:35.332Z,98264.31
2023-03-29T16:14:01.984Z,98275.69
2023-03-29T16:16:28.585Z,98262.91
2023-03-29T16:18:55.149Z,98265.47
2023-03-29T16:21:22.773Z,98257.06
2023-03-29T16:23:49.214Z,98266.50
2023-03-29T16:26:16.964Z,98257.75
2023-03-29T16:28:43.699Z,98259.19
2023-03-29T16:31:11.878Z,98260.06
2023-03-29T16:33:39.259Z,98252.94
2023-03-29T16:36:06.668Z,98260.25
2023-03-29T16:38:33.790Z,98250.72
2023-03-29T16:41:00.715Z,98250.56
2023-03-29T16:43:27.761Z,98251.56
2023-03-29T16:45:54.320Z,98243.25
2023-03-29T16:48:21.273Z,98245.28
2023-03-29T16:50:50.849Z,98234.72
2023-03-29T16:53:21.720Z,98237.13
2023-03-29T16:55:48.450Z,98232.13
2023-03-29T16:58:15.294Z,98235.19
2023-03-29T17:00:41.999Z,98242.31
2023-03-29T17:03:08.901Z,98243.31
2023-03-29T17:05:41.229Z,98241.53
2023-03-29T17:08:10.031Z,98234.16
2023-03-29T17:10:39.396Z,98237.97
2023-03-29T17:13:05.816Z,98229.66
2023-03-29T17:15:32.455Z,98228.38
2023-03-29T17:17:59.027Z,98219.34
2023-03-29T17:20:25.741Z,98223.34
2023-03-29T17:22:55.261Z,98227.53
2023-03-29T17:25:23.160Z,98221.28
2023-03-29T17:27:50.525Z,98222.94
2023-03-29T17:30:17.249Z,98222.03
2023-03-29T17:32:45.515Z,98220.25
2023-03-29T17:35:13.237Z,98230.72
2023-03-29T17:37:39.856Z,98235.25
2023-03-29T17:40:13.760Z,98219.41
2023-03-29T17:42:42.018Z,98209.22
2023-03-29T17:45:10.236Z,98192.00
2023-03-29T17:47:37.977Z,98188.72
2023-03-29T17:50:06.688Z,98169.34
2023-03-29T17:52:33.258Z,98171.19
2023-03-29T17:54:59.919Z,98193.13
2023-03-29T17:57:26.665Z,98207.97
2023-03-29T17:59:53.521Z,98213.47
2023-03-29T18:02:23.298Z,98198.31
2023-03-29T18:04:50.749Z,98194.66
2023-03-29T18:07:17.558Z,98183.22
2023-03-29T18:09:44.164Z,98194.00
2023-03-29T18:12:10.940Z,98201.97
2023-03-29T18:14:37.700Z,98198.00
2023-03-29T18:17:04.410Z,98201.06
2023-03-29T18:19:30.931Z,98199.00
2023-03-29T18:21:57.510Z,98195.84
2023-03-29T18:24:24.077Z,98198.00
2023-03-29T18:26:50.773Z,98200.25
2023-03-29T18:29:17.234Z,98202.28
2023-03-29T18:31:45.773Z,98196.03
2023-03-29T18:34:12.214Z,98193.41
2023-03-29T18:36:39.688Z,98188.09
2023-03-29T18:39:06.651Z,98183.28
2023-03-29T18:41:34.067Z,98179.09
2023-03-29T18:44:00.853Z,98170.38
2023-03-29T18:46:31.711Z,98178.19
2023-03-29T18:48:59.588Z,98173.34
2023-03-29T18:51:27.974Z,98160.03
2023-03-29T18:53:55.693Z,98160.31
2023-03-29T18:56:22.476Z,98179.97
2023-03-29T18:58:51.838Z,98191.63
2023-03-29T19:01:18.729Z,98190.81
2023-03-29T19:03:45.446Z,98203.25
2023-03-29T19:06:12.137Z,98208.22
2023-03-29T19:08:41.105Z,98197.97
2023-03-29T19:11:11.483Z,98198.78
2023-03-29T19:13:38.049Z,98204.19
2023-03-29T19:16:05.034Z,98204.00
2023-03-29T19:18:32.021Z,98204.16
2023-03-29T19:20:58.763Z,98211.34
2023-03-29T19:23:27.531Z,98204.47
2023-03-29T19:26:00.070Z,98199.88
2023-03-29T19:28:27.320Z,98198.91
2023-03-29T19:30:54.722Z,98193.00
2023-03-29T19:33:21.611Z,98195.34
2023-03-29T19:35:50.898Z,98188.22
2023-03-29T19:38:18.773Z,98192.28
2023-03-29T19:40:46.752Z,98185.44
2023-03-29T19:43:16.386Z,98190.31
2023-03-29T19:45:47.564Z,98173.81
2023-03-29T19:48:21.895Z,98173.78
2023-03-29T19:50:49.838Z,98173.94
2023-03-29T19:53:16.465Z,98167.13
2023-03-29T19:55:45.065Z,98161.22
2023-03-29T19:58:13.188Z,98159.88
2023-03-29T20:00:40.004Z,98154.38
2023-03-29T20:03:10.450Z,98148.13
2023-03-29T20:05:38.884Z,98147.50
2023-03-29T20:08:06.506Z,98147.44
2023-03-29T20:10:33.582Z,98140.22
2023-03-29T20:13:00.228Z,98126.94
2023-03-29T20:15:26.895Z,98114.97
2023-03-29T20:17:59.458Z,98119.91
2023-03-29T20:20:27.448Z,98111.69
2023-03-29T20:22:58.042Z,98104.59
2023-03-29T20:25:24.938Z,98108.22
2023-03-29T20:27:51.636Z,98100.50
2023-03-29T20:30:18.374Z,98083.03
2023-03-29T20:32:44.988Z,98083.38
2023-03-29T20:35:11.690Z,98082.91
2023-03-29T20:37:38.103Z,98080.44
2023-03-29T20:40:05.604Z,98067.59
2023-03-29T20:42:34.268Z,98064.75
2023-03-29T20:45:01.370Z,98056.72
2023-03-29T20:47:29.419Z,98054.47
2023-03-29T20:49:56.801Z,98056.47
2023-03-29T20:52:24.223Z,98054.47
2023-03-29T20:54:51.073Z,98057.31
2023-03-29T20:57:20.585Z,98055.59
2023-03-29T20:59:48.920Z,98057.53
2023-03-29T21:02:20.733Z,98054.09
2023-03-29T21:04:51.903Z,98053.72
2023-03-29T21:07:20.046Z,98043.81
2023-03-29T21:09:48.361Z,98037.38
2023-03-29T21:12:14.826Z,98037.69
2023-03-29T21:14:41.643Z,98028.13
2023-03-29T21:17:09.358Z,98027.13
2023-03-29T21:19:37.944Z,98028.38
2023-03-29T21:22:04.975Z,98031.22
2023-03-29T21:24:33.050Z,98017.41
2023-03-29T21:26:59.890Z,98015.19
2023-03-29T21:29:26.382Z,98019.25
2023-03-29T21:31:53.019Z,98015.03
2023-03-29T21:34:19.514Z,98012.03
2023-03-29T21:36:45.931Z,98001.53
2023-03-29T21:39:12.675Z,97995.88
2023-03-29T21:41:39.099Z,97987.13
2023-03-29T21:44:05.745Z,97990.72
2023-03-29T21:46:32.235Z,97990.72
2023-03-29T21:48:58.837Z,97993.78
2023-03-29T21:51:25.634Z,97995.69
2023-03-29T21:53:52.123Z,97995.84
2023-03-29T21:56:18.586Z,97992.94
2023-03-29T21:58:45.107Z,97997.47
2023-03-29T22:01:11.619Z,97982.84
2023-03-29T22:03:38.500Z,97983.03
2023-03-29T22:06:10.552Z,97967.19
2023-03-29T22:08:38.854Z,97968.09
2023-03-29T22:11:10.978Z,97959.22
2023-03-29T22:13:37.778Z,97947.13
2023-03-29T22:16:05.284Z,97955.03
2023-03-29T22:18:43.545Z,97938.25
2023-03-29T22:21:13.854Z,97951.22
2023-03-29T22:23:41.646Z,97948.59
2023-03-29T22:26:09.973Z,97947.84
2023-03-29T22:28:37.268Z,97949.41
2023-03-29T22:31:09.438Z,97944.41
2023-03-29T22:33:36.741Z,97950.69
2023-03-29T22:36:11.701Z,97954.03
2023-03-29T22:38:38.495Z,97947.22
2023-03-29T22:41:05.265Z,97944.53
2023-03-29T22:43:32.043Z,97952.78
2023-03-29T22:45:58.536Z,97952.09
2023-03-29T22:48:25.110Z,97955.78
2023-03-29T22:50:51.576Z,97937.88
2023-03-29T22:53:17.984Z,97950.88
2023-03-29T22:55:45.332Z,97947.38
2023-03-29T22:58:12.087Z,97941.81
2023-03-29T23:00:38.660Z,97940.78
2023-03-29T23:03:06.477Z,97948.06
2023-03-29T23:05:33.513Z,97940.56
2023-03-29T23:08:00.238Z,97944.09
2023-03-29T23:10:28.948Z,97942.84
2023-03-29T23:13:08.559Z,97941.22
2023-03-29T23:15:42.761Z,97941.81
2023-03-29T23:18:13.074Z,97934.78
2023-03-29T23:20:40.663Z,97923.16
2023-03-29T23:23:07.404Z,97924.94
2023-03-29T23:25:34.048Z,97910.81
2023-03-29T23:28:00.682Z,97916.06
2023-03-29T23:30:27.436Z,97913.63
2023-03-29T23:32:53.851Z,97917.78
2023-03-29T23:35:21.119Z,97916.88
2023-03-29T23:37:47.782Z,97911.88
2023-03-29T23:40:15.503Z,97912.28
2023-03-29T23:42:44.511Z,97920.97
2023-03-29T23:45:14.400Z,97897.03
2023-03-29T23:47:42.510Z,97902.53
2023-03-29T23:50:11.881Z,97892.06
2023-03-29T23:52:38.252Z,97894.75
2023-03-29T23:55:05.048Z,97885.47
2023-03-29T23:57:34.853Z,97884.00
